Main page
METAR-TAF:

METAR-TAF

Airports :

Rimini, Italy

Federico Fellini International Airport

latitude: 44-02N, longitude: 012-37E, elevation: 12 m

Current weather observation

The report was made 38 minutes ago, at 02:15 UTC
Wind 2 kt from the South/Southwest
Temperature 15°C
Humidity 94%
Pressure 1020 hPa
Visibility 10 km or more
no clouds below 1500 m and no cumulonimbus

METAR: LIPR 280215Z 20002KT CAVOK 15/14 Q1020

Time: 04:53 (02:53 UTC)

Forecast

The report was made 53 minutes ago, at 02:00 UTC
Forecast valid from 28 at 03 UTC to 28 at 12 UTC
Wind 3 kt from variable directions
Visibility 10 km or more
no clouds below 1500 m and no cumulonimbus
Becoming
from 28 at 09 UTC to 28 at 11 UTC
Wind 12 kt from the East/Southeast

TAF: LIPR 280200Z 2803/2812 VRB03KT CAVOK BECMG 2809/2811 11012KT

Weather observations and forecasts of more than 4000 airports (METAR and TAF reports).

The available stations are represented by yellow and red dots on the map.

Hover mouse over dot to see the name of the station.

Then click to see weather observations and forecasts.

To change the map : click on the green buttons with a black cross to zoom in, on the green button with a dash to zoom out, or on the green arrows for adjacent maps.


METAR-TAF: